createdAt,value
2023-03-06T00:01:03.785Z,2.93
2023-03-06T00:03:32.135Z,3.00
2023-03-06T00:06:00.671Z,2.90
2023-03-06T00:08:29.142Z,2.90
2023-03-06T00:10:57.166Z,2.90
2023-03-06T00:13:26.562Z,2.97
2023-03-06T00:15:54.082Z,2.90
2023-03-06T00:18:21.670Z,2.90
2023-03-06T00:20:48.640Z,2.90
2023-03-06T00:23:16.112Z,2.87
2023-03-06T00:25:46.974Z,3.00
2023-03-06T00:28:15.701Z,2.90
2023-03-06T00:30:44.199Z,2.90
2023-03-06T00:33:12.055Z,2.90
2023-03-06T00:35:40.785Z,2.90
2023-03-06T00:38:11.341Z,2.90
2023-03-06T00:40:39.002Z,2.90
2023-03-06T00:43:05.989Z,2.90
2023-03-06T00:45:33.151Z,2.90
2023-03-06T00:48:00.765Z,2.90
2023-03-06T00:50:27.896Z,2.90
2023-03-06T00:52:55.748Z,2.83
2023-03-06T00:55:25.029Z,2.93
2023-03-06T00:57:52.002Z,2.90
2023-03-06T01:00:19.566Z,2.90
2023-03-06T01:02:46.568Z,2.87
2023-03-06T01:05:14.988Z,2.80
2023-03-06T01:07:42.438Z,2.80
2023-03-06T01:10:11.202Z,2.90
2023-03-06T01:12:38.273Z,2.90
2023-03-06T01:15:07.224Z,2.90
2023-03-06T01:17:35.433Z,2.90
2023-03-06T01:20:03.565Z,2.90
2023-03-06T01:22:31.145Z,2.87
2023-03-06T01:24:59.655Z,3.00
2023-03-06T01:27:26.644Z,2.90
2023-03-06T01:29:53.652Z,2.93
2023-03-06T01:32:21.442Z,3.00
2023-03-06T01:34:48.479Z,3.00
2023-03-06T01:37:16.128Z,2.90
2023-03-06T01:39:43.596Z,2.90
2023-03-06T01:42:10.684Z,2.93
2023-03-06T01:45:01.384Z,2.90
2023-03-06T01:47:28.870Z,2.90
2023-03-06T01:49:58.290Z,2.90
2023-03-06T01:52:36.473Z,2.87
2023-03-06T01:55:11.578Z,2.90
2023-03-06T01:57:51.056Z,2.90
2023-03-06T02:00:25.119Z,2.90
2023-03-06T02:03:01.404Z,2.90
2023-03-06T02:05:29.473Z,2.93
2023-03-06T02:07:57.544Z,2.90
2023-03-06T02:10:25.277Z,2.90
2023-03-06T02:12:53.202Z,2.90
2023-03-06T02:15:25.714Z,2.90
2023-03-06T02:17:54.242Z,2.90
2023-03-06T02:20:56.733Z,2.90
2023-03-06T02:24:12.974Z,2.90
2023-03-06T02:26:43.292Z,2.93
2023-03-06T02:29:10.918Z,2.90
2023-03-06T02:31:38.438Z,2.90
2023-03-06T02:34:14.780Z,2.90
2023-03-06T02:36:52.557Z,2.90
2023-03-06T02:39:26.899Z,2.90
2023-03-06T02:41:54.058Z,2.93
2023-03-06T02:44:25.962Z,2.90
2023-03-06T02:46:53.501Z,2.90
2023-03-06T02:49:20.476Z,2.90
2023-03-06T02:51:47.670Z,2.90
2023-03-06T02:54:18.183Z,2.90
2023-03-06T02:56:46.092Z,2.90
2023-03-06T02:59:13.190Z,2.90
2023-03-06T03:01:40.565Z,2.83
2023-03-06T03:04:08.839Z,2.90
2023-03-06T03:06:37.522Z,2.90
2023-03-06T03:09:04.752Z,2.90
2023-03-06T03:11:32.279Z,2.97
2023-03-06T03:13:59.464Z,2.90
2023-03-06T03:16:28.347Z,2.90
2023-03-06T03:18:58.689Z,2.90
2023-03-06T03:21:26.629Z,2.87
2023-03-06T03:23:55.690Z,2.90
2023-03-06T03:26:24.673Z,2.87
2023-03-06T03:29:05.943Z,2.93
2023-03-06T03:31:33.288Z,2.90
2023-03-06T03:34:02.320Z,2.93
2023-03-06T03:36:32.266Z,2.93
2023-03-06T03:39:00.185Z,2.83
2023-03-06T03:41:27.756Z,2.90
2023-03-06T03:43:55.235Z,2.97
2023-03-06T03:46:23.845Z,2.90
2023-03-06T03:48:53.379Z,2.90
2023-03-06T03:51:20.523Z,2.93
2023-03-06T03:53:52.179Z,3.00
2023-03-06T03:56:27.057Z,2.90
2023-03-06T03:59:03.034Z,2.90
2023-03-06T04:01:39.143Z,3.00
2023-03-06T04:04:06.785Z,2.93
2023-03-06T04:06:33.860Z,2.93
2023-03-06T04:09:01.682Z,2.90
2023-03-06T04:11:30.247Z,2.97
2023-03-06T04:13:57.898Z,3.00
2023-03-06T04:16:25.125Z,2.90
2023-03-06T04:18:52.230Z,2.90
2023-03-06T04:21:20.840Z,2.90
2023-03-06T04:23:48.007Z,2.97
2023-03-06T04:26:15.322Z,2.90
2023-03-06T04:28:43.320Z,2.90
2023-03-06T04:31:13.099Z,2.93
2023-03-06T04:33:40.321Z,2.90
2023-03-06T04:36:21.101Z,2.93
2023-03-06T04:38:49.688Z,2.90
2023-03-06T04:41:16.753Z,2.93
2023-03-06T04:43:43.812Z,3.00
2023-03-06T04:46:11.776Z,3.00
2023-03-06T04:48:38.952Z,2.90
2023-03-06T04:51:06.610Z,3.00
2023-03-06T04:53:34.176Z,2.90
2023-03-06T04:56:01.216Z,2.97
2023-03-06T04:58:28.182Z,2.90
2023-03-06T05:00:55.313Z,2.90
2023-03-06T05:03:22.910Z,2.90
2023-03-06T05:05:49.844Z,2.90
2023-03-06T05:08:18.118Z,2.97
2023-03-06T05:10:45.912Z,2.90
2023-03-06T05:13:13.532Z,2.97
2023-03-06T05:15:41.912Z,3.00
2023-03-06T05:18:09.638Z,3.00
2023-03-06T05:20:36.643Z,2.90
2023-03-06T05:23:04.067Z,2.97
2023-03-06T05:25:31.444Z,2.93
2023-03-06T05:27:58.464Z,2.90
2023-03-06T05:30:25.919Z,3.00
2023-03-06T05:32:53.322Z,2.90
2023-03-06T05:35:23.422Z,2.90
2023-03-06T05:37:50.857Z,2.90
2023-03-06T05:40:18.945Z,2.97
2023-03-06T05:42:47.150Z,3.00
2023-03-06T05:45:14.247Z,2.93
2023-03-06T05:47:41.375Z,3.00
2023-03-06T05:50:10.377Z,2.90
2023-03-06T05:52:39.702Z,3.00
2023-03-06T05:55:08.250Z,2.97
2023-03-06T05:57:35.261Z,2.97
2023-03-06T06:00:03.735Z,2.87
2023-03-06T06:02:39.893Z,2.97
2023-03-06T06:05:08.369Z,2.90
2023-03-06T06:07:35.816Z,2.90
2023-03-06T06:10:04.795Z,2.97
2023-03-06T06:12:32.835Z,2.97
2023-03-06T06:14:59.847Z,3.00
2023-03-06T06:17:26.839Z,3.00
2023-03-06T06:19:54.704Z,3.00
2023-03-06T06:22:21.691Z,3.00
2023-03-06T06:24:49.110Z,2.97
2023-03-06T06:27:16.053Z,2.90
2023-03-06T06:29:43.042Z,3.00
2023-03-06T06:32:10.058Z,2.97
2023-03-06T06:34:37.534Z,2.90
2023-03-06T06:37:04.516Z,2.90
2023-03-06T06:39:31.965Z,2.90
2023-03-06T06:42:16.085Z,2.90
2023-03-06T06:44:46.570Z,2.93
2023-03-06T06:47:23.624Z,2.90
2023-03-06T06:49:55.185Z,2.90
2023-03-06T06:52:24.547Z,2.90
2023-03-06T06:54:52.981Z,2.87
2023-03-06T06:57:20.556Z,2.90
2023-03-06T06:59:47.936Z,2.87
2023-03-06T07:02:16.429Z,2.90
2023-03-06T07:05:01.859Z,2.87
2023-03-06T07:07:31.691Z,2.90
2023-03-06T07:09:58.672Z,2.90
2023-03-06T07:12:26.141Z,2.90
2023-03-06T07:14:53.075Z,2.90
2023-03-06T07:17:20.485Z,2.90
2023-03-06T07:19:48.157Z,2.80
2023-03-06T07:22:15.371Z,2.83
2023-03-06T07:24:42.750Z,2.80
2023-03-06T07:27:09.764Z,2.80
2023-03-06T07:29:37.177Z,2.83
2023-03-06T07:32:04.821Z,2.90
2023-03-06T07:34:31.897Z,2.80
2023-03-06T07:36:59.361Z,2.87
2023-03-06T07:39:27.960Z,2.80
2023-03-06T07:41:55.472Z,2.90
2023-03-06T07:44:22.671Z,2.87
2023-03-06T07:46:49.692Z,2.80
2023-03-06T07:49:17.338Z,2.80
2023-03-06T07:51:44.852Z,2.80
2023-03-06T07:54:11.783Z,2.77
2023-03-06T07:56:39.189Z,2.73
2023-03-06T07:59:06.125Z,2.80
2023-03-06T08:01:33.547Z,2.80
2023-03-06T08:04:01.766Z,2.80
2023-03-06T08:06:28.736Z,2.80
2023-03-06T08:08:56.809Z,2.73
2023-03-06T08:11:28.543Z,2.73
2023-03-06T08:13:57.455Z,2.70
2023-03-06T08:16:29.389Z,2.70
2023-03-06T08:18:57.718Z,2.70
2023-03-06T08:21:28.292Z,2.70
2023-03-06T08:23:56.041Z,2.70
2023-03-06T08:26:30.919Z,2.77
2023-03-06T08:29:01.152Z,2.80
2023-03-06T08:31:40.215Z,2.80
2023-03-06T08:34:15.624Z,2.80
2023-03-06T08:36:42.769Z,2.77
2023-03-06T08:39:10.939Z,2.73
2023-03-06T08:41:38.564Z,2.73
2023-03-06T08:44:05.901Z,2.77
2023-03-06T08:46:34.787Z,2.70
2023-03-06T08:49:02.320Z,2.80
2023-03-06T08:51:29.402Z,2.80
2023-03-06T08:53:58.259Z,2.70
2023-03-06T08:56:33.377Z,2.73
2023-03-06T08:59:04.922Z,2.80
2023-03-06T09:04:06.466Z,2.70
2023-03-06T09:06:40.080Z,2.70
2023-03-06T09:09:08.355Z,2.77
2023-03-06T09:11:36.356Z,2.80
2023-03-06T09:14:05.362Z,2.77
2023-03-06T09:16:33.357Z,2.80
2023-03-06T09:19:00.388Z,2.80
2023-03-06T09:21:28.546Z,2.80
2023-03-06T09:23:56.070Z,2.73
2023-03-06T09:26:32.797Z,2.70
2023-03-06T09:29:07.775Z,2.70
2023-03-06T09:31:34.858Z,2.80
2023-03-06T09:34:01.862Z,2.77
2023-03-06T09:36:28.797Z,2.70
2023-03-06T09:38:55.749Z,2.80
2023-03-06T09:41:33.510Z,2.70
2023-03-06T09:44:20.331Z,2.73
2023-03-06T09:47:41.455Z,2.77
2023-03-06T09:50:37.702Z,2.80
2023-03-06T09:53:49.910Z,2.80
2023-03-06T09:56:23.721Z,2.70
2023-03-06T09:59:24.149Z,2.70
2023-03-06T10:02:35.591Z,2.70
2023-03-06T10:05:10.369Z,2.70
2023-03-06T10:07:50.910Z,2.70
2023-03-06T10:10:25.402Z,2.60
2023-03-06T10:13:40.223Z,2.70
2023-03-06T10:16:27.162Z,2.80
2023-03-06T10:19:01.231Z,2.77
2023-03-06T10:22:07.258Z,2.73
2023-03-06T10:25:20.865Z,2.73
2023-03-06T10:27:58.536Z,2.80
2023-03-06T10:31:19.681Z,2.80
2023-03-06T10:33:55.865Z,2.73
2023-03-06T10:36:28.323Z,2.77
2023-03-06T10:38:59.691Z,2.77
2023-03-06T10:41:35.723Z,2.80
2023-03-06T10:44:05.686Z,2.90
2023-03-06T10:46:45.275Z,2.80
2023-03-06T10:49:29.914Z,2.80
2023-03-06T10:52:14.781Z,2.80
2023-03-06T10:54:44.645Z,2.73
2023-03-06T10:57:32.435Z,2.70
2023-03-06T11:00:32.409Z,2.80
2023-03-06T11:03:22.793Z,2.80
2023-03-06T11:06:34.425Z,2.73
2023-03-06T11:09:24.562Z,2.70
2023-03-06T11:11:52.576Z,2.70
2023-03-06T11:14:23.139Z,2.70
2023-03-06T11:16:53.653Z,2.77
2023-03-06T11:19:29.586Z,2.77
2023-03-06T11:22:19.066Z,2.77
2023-03-06T11:24:54.708Z,2.80
2023-03-06T11:27:34.417Z,2.80
2023-03-06T11:30:20.248Z,2.77
2023-03-06T11:33:02.573Z,2.80
2023-03-06T11:36:06.487Z,2.77
2023-03-06T11:38:52.130Z,2.77
2023-03-06T11:42:03.775Z,2.73
2023-03-06T11:44:54.560Z,2.73
2023-03-06T11:47:37.082Z,2.73
2023-03-06T11:50:31.633Z,2.73
2023-03-06T11:53:05.102Z,2.77
2023-03-06T11:55:49.649Z,2.80
2023-03-06T11:59:05.420Z,2.77
2023-03-06T12:02:26.345Z,2.80
2023-03-06T12:05:25.157Z,2.80
2023-03-06T12:08:40.001Z,2.77
2023-03-06T12:11:20.895Z,2.70
2023-03-06T12:14:40.756Z,2.83
2023-03-06T12:18:08.094Z,2.80
2023-03-06T12:20:58.743Z,2.70
2023-03-06T12:24:07.005Z,2.80
2023-03-06T12:27:15.365Z,2.73
2023-03-06T12:30:41.185Z,2.70
2023-03-06T12:33:51.145Z,2.80
2023-03-06T12:36:41.382Z,2.70
2023-03-06T12:39:39.845Z,2.80
2023-03-06T12:42:42.269Z,2.80
2023-03-06T12:45:35.123Z,2.80
2023-03-06T12:48:03.637Z,2.80
2023-03-06T12:50:38.108Z,2.73
2023-03-06T12:53:27.682Z,2.80
2023-03-06T12:55:57.591Z,2.73
2023-03-06T12:58:30.566Z,2.80
2023-03-06T13:01:16.413Z,2.77
2023-03-06T13:04:33.173Z,2.73
2023-03-06T13:07:30.451Z,2.77
2023-03-06T13:10:35.315Z,2.70
2023-03-06T13:13:30.412Z,2.80
2023-03-06T13:16:32.023Z,2.80
2023-03-06T13:19:23.318Z,2.80
2023-03-06T13:21:56.111Z,2.80
2023-03-06T13:24:31.655Z,2.80
2023-03-06T13:27:12.151Z,2.80
2023-03-06T13:29:39.471Z,2.73
2023-03-06T13:32:20.388Z,2.70
2023-03-06T13:34:49.898Z,2.80
2023-03-06T13:37:20.042Z,2.70
2023-03-06T13:39:59.274Z,2.73
2023-03-06T13:42:35.963Z,2.70
2023-03-06T13:45:30.113Z,2.70
2023-03-06T13:48:27.304Z,2.70
2023-03-06T13:50:48.790Z,2.73
2023-03-06T13:53:53.630Z,2.70
2023-03-06T13:56:58.968Z,2.80
2023-03-06T14:00:22.418Z,2.70
2023-03-06T14:03:10.728Z,2.70
2023-03-06T14:05:53.809Z,2.70
2023-03-06T14:08:25.575Z,2.70
2023-03-06T14:11:21.724Z,2.73
2023-03-06T14:13:55.984Z,2.73
2023-03-06T14:16:40.492Z,2.70
2023-03-06T14:19:18.703Z,2.70
2023-03-06T14:21:50.037Z,2.77
2023-03-06T14:24:20.873Z,2.70
2023-03-06T14:26:51.840Z,2.70
2023-03-06T14:29:29.572Z,2.73
2023-03-06T14:32:00.154Z,2.70
2023-03-06T14:34:41.007Z,2.70
2023-03-06T14:37:24.446Z,2.77
2023-03-06T14:39:52.449Z,2.80
2023-03-06T14:42:26.164Z,2.77
2023-03-06T14:45:16.918Z,2.73
2023-03-06T14:47:51.670Z,2.73
2023-03-06T14:50:30.618Z,2.73
2023-03-06T14:53:13.988Z,2.73
2023-03-06T14:56:00.396Z,2.70
2023-03-06T14:59:12.501Z,2.80
2023-03-06T15:01:49.947Z,2.70
2023-03-06T15:04:40.704Z,2.73
2023-03-06T15:07:15.598Z,2.77
2023-03-06T15:09:50.564Z,2.73
2023-03-06T15:12:20.724Z,2.77
2023-03-06T15:15:10.165Z,2.80
2023-03-06T15:17:47.366Z,2.83
2023-03-06T15:20:47.598Z,2.80
2023-03-06T15:23:44.193Z,2.77
2023-03-06T15:26:36.701Z,2.70
2023-03-06T15:29:24.107Z,2.77
2023-03-06T15:31:51.406Z,2.77
2023-03-06T15:34:23.539Z,2.70
2023-03-06T15:36:58.396Z,2.70
2023-03-06T15:39:41.572Z,2.73
2023-03-06T15:42:27.911Z,2.77
2023-03-06T15:45:02.867Z,2.80
2023-03-06T15:47:29.967Z,2.80
2023-03-06T15:49:56.969Z,2.77
2023-03-06T15:52:24.194Z,2.73
2023-03-06T15:54:51.588Z,2.73
2023-03-06T15:57:28.900Z,2.70
2023-03-06T15:59:59.882Z,2.80
2023-03-06T16:02:26.849Z,2.80
2023-03-06T16:04:53.925Z,2.80
2023-03-06T16:07:21.544Z,2.80
2023-03-06T16:09:48.702Z,2.80
2023-03-06T16:12:20.409Z,2.90
2023-03-06T16:14:49.043Z,2.80
2023-03-06T16:17:17.023Z,2.87
2023-03-06T16:19:44.336Z,2.90
2023-03-06T16:22:11.687Z,2.90
2023-03-06T16:24:39.192Z,2.90
2023-03-06T16:27:06.872Z,2.87
2023-03-06T16:29:34.914Z,2.90
2023-03-06T16:32:02.187Z,2.90
2023-03-06T16:34:29.704Z,2.90
2023-03-06T16:36:56.686Z,2.90
2023-03-06T16:39:24.512Z,2.90
2023-03-06T16:41:52.455Z,2.83
2023-03-06T16:44:20.615Z,2.90
2023-03-06T16:46:50.134Z,2.80
2023-03-06T16:49:25.277Z,2.90
2023-03-06T16:51:53.959Z,2.80
2023-03-06T16:54:23.046Z,2.80
2023-03-06T16:56:50.076Z,2.87
2023-03-06T16:59:17.144Z,2.80
2023-03-06T17:01:44.202Z,2.87
2023-03-06T17:04:11.874Z,2.90
2023-03-06T17:06:39.841Z,3.00
2023-03-06T17:09:07.097Z,2.87
2023-03-06T17:11:38.637Z,2.90
2023-03-06T17:14:06.826Z,2.90
2023-03-06T17:16:34.014Z,2.90
2023-03-06T17:19:02.288Z,2.90
2023-03-06T17:21:30.224Z,2.93
2023-03-06T17:23:57.644Z,2.97
2023-03-06T17:26:24.872Z,2.90
2023-03-06T17:28:51.852Z,2.90
2023-03-06T17:31:25.192Z,2.90
2023-03-06T17:33:57.077Z,2.90
2023-03-06T17:36:24.868Z,2.87
2023-03-06T17:38:56.772Z,2.83
2023-03-06T17:41:24.782Z,2.90
2023-03-06T17:43:55.824Z,2.87
2023-03-06T17:46:23.288Z,2.83
2023-03-06T17:48:50.876Z,2.90
2023-03-06T17:51:18.319Z,2.80
2023-03-06T17:53:45.708Z,2.83
2023-03-06T17:56:14.484Z,2.80
2023-03-06T17:58:42.096Z,2.83
2023-03-06T18:01:20.063Z,2.80
2023-03-06T18:03:50.552Z,2.80
2023-03-06T18:06:20.550Z,2.90
2023-03-06T18:08:52.244Z,2.90
2023-03-06T18:11:20.810Z,2.83
2023-03-06T18:13:48.665Z,2.90
2023-03-06T18:16:20.530Z,2.80
2023-03-06T18:18:48.084Z,2.90
2023-03-06T18:21:16.685Z,2.87
2023-03-06T18:23:44.237Z,2.90
2023-03-06T18:26:30.567Z,2.90
2023-03-06T18:29:01.782Z,2.90
2023-03-06T18:31:39.411Z,2.90
2023-03-06T18:34:14.672Z,2.93
2023-03-06T18:36:43.417Z,2.90
2023-03-06T18:39:14.119Z,2.90
2023-03-06T18:41:41.808Z,2.80
2023-03-06T18:44:13.756Z,2.87
2023-03-06T18:46:40.996Z,2.90
2023-03-06T18:49:08.804Z,2.90
2023-03-06T18:51:35.932Z,2.90
2023-03-06T18:54:05.952Z,2.90
2023-03-06T18:56:34.147Z,2.80
2023-03-06T18:59:07.004Z,2.80
2023-03-06T19:01:35.513Z,2.87
2023-03-06T19:04:04.747Z,2.83
2023-03-06T19:06:32.054Z,2.90
2023-03-06T19:08:59.379Z,2.90
2023-03-06T19:11:26.945Z,2.90
2023-03-06T19:13:54.656Z,2.90
2023-03-06T19:16:27.351Z,2.87
2023-03-06T19:18:55.588Z,2.90
2023-03-06T19:21:27.438Z,2.87
2023-03-06T19:23:56.278Z,2.90
2023-03-06T19:26:24.341Z,2.80
2023-03-06T19:28:52.456Z,2.90
2023-03-06T19:31:28.243Z,2.90
2023-03-06T19:33:57.099Z,2.90
2023-03-06T19:36:33.290Z,2.87
2023-03-06T19:39:05.973Z,2.90
2023-03-06T19:41:34.386Z,2.90
2023-03-06T19:44:05.875Z,2.83
2023-03-06T19:46:34.409Z,2.90
2023-03-06T19:49:03.566Z,2.80
2023-03-06T19:51:31.069Z,2.80
2023-03-06T19:53:58.401Z,2.83
2023-03-06T19:56:28.985Z,2.80
2023-03-06T19:58:57.014Z,2.80
2023-03-06T20:01:27.475Z,2.80
2023-03-06T20:03:59.937Z,2.80
2023-03-06T20:06:33.717Z,2.90
2023-03-06T20:09:06.875Z,2.80
2023-03-06T20:11:34.724Z,2.80
2023-03-06T20:14:04.724Z,2.83
2023-03-06T20:16:33.291Z,2.80
2023-03-06T20:19:02.028Z,2.80
2023-03-06T20:21:33.792Z,2.80
2023-03-06T20:24:01.346Z,2.80
2023-03-06T20:26:29.767Z,2.83
2023-03-06T20:28:58.271Z,2.80
2023-03-06T20:31:30.068Z,2.83
2023-03-06T20:33:59.504Z,2.83
2023-03-06T20:36:36.797Z,2.80
2023-03-06T20:39:09.285Z,2.80
2023-03-06T20:41:37.101Z,2.80
2023-03-06T20:44:08.294Z,2.87
2023-03-06T20:46:36.174Z,2.90
2023-03-06T20:49:04.809Z,2.80
2023-03-06T20:51:39.024Z,2.90
2023-03-06T20:54:10.922Z,2.80
2023-03-06T20:56:41.104Z,2.83
2023-03-06T20:59:14.108Z,2.87
2023-03-06T21:01:45.125Z,2.87
2023-03-06T21:04:14.732Z,2.83
2023-03-06T21:06:46.506Z,2.87
2023-03-06T21:09:17.724Z,2.90
2023-03-06T21:11:46.044Z,2.87
2023-03-06T21:14:14.240Z,2.83
2023-03-06T21:16:43.286Z,2.90
2023-03-06T21:19:11.147Z,2.80
2023-03-06T21:21:38.627Z,2.80
2023-03-06T21:24:06.297Z,2.80
2023-03-06T21:26:34.011Z,2.80
2023-03-06T21:29:02.435Z,2.80
2023-03-06T21:31:33.253Z,2.80
2023-03-06T21:34:04.502Z,2.83
2023-03-06T21:36:32.185Z,2.83
2023-03-06T21:38:59.228Z,2.80
2023-03-06T21:41:30.296Z,2.80
2023-03-06T21:44:01.814Z,2.80
2023-03-06T21:46:30.038Z,2.80
2023-03-06T21:48:58.222Z,2.80
2023-03-06T21:51:27.469Z,2.87
2023-03-06T21:53:55.213Z,2.80
2023-03-06T21:56:25.424Z,2.83
2023-03-06T21:58:53.194Z,2.80
2023-03-06T22:01:28.533Z,2.80
2023-03-06T22:03:57.280Z,2.80
2023-03-06T22:06:27.907Z,2.80
2023-03-06T22:08:57.658Z,2.80
2023-03-06T22:11:28.131Z,2.77
2023-03-06T22:13:55.106Z,2.90
2023-03-06T22:16:22.181Z,2.80
2023-03-06T22:18:51.943Z,2.80
2023-03-06T22:21:22.006Z,2.83
2023-03-06T22:23:57.407Z,2.80
2023-03-06T22:26:26.500Z,2.77
2023-03-06T22:28:53.862Z,2.87
2023-03-06T22:31:25.211Z,2.90
2023-03-06T22:33:58.603Z,2.90
2023-03-06T22:36:27.080Z,2.90
2023-03-06T22:38:58.932Z,2.73
2023-03-06T22:41:26.961Z,2.87
2023-03-06T22:44:02.375Z,2.80
2023-03-06T22:46:30.099Z,2.80
2023-03-06T22:49:02.130Z,2.80
2023-03-06T22:51:30.024Z,2.90
2023-03-06T22:53:58.149Z,2.80
2023-03-06T22:56:25.475Z,2.83
2023-03-06T22:58:52.512Z,2.80
2023-03-06T23:01:27.120Z,2.80
2023-03-06T23:04:01.286Z,2.90
2023-03-06T23:06:36.442Z,2.87
2023-03-06T23:09:21.826Z,2.80
2023-03-06T23:12:08.932Z,2.90
2023-03-06T23:14:54.917Z,2.80
2023-03-06T23:17:40.708Z,2.80
2023-03-06T23:20:26.785Z,2.87
2023-03-06T23:23:12.301Z,2.80
2023-03-06T23:25:43.647Z,2.80
2023-03-06T23:28:11.058Z,2.83
2023-03-06T23:30:39.727Z,2.83
2023-03-06T23:33:08.163Z,2.83
2023-03-06T23:35:37.703Z,2.80
2023-03-06T23:38:05.227Z,2.80
2023-03-06T23:40:34.554Z,2.80
2023-03-06T23:43:02.818Z,2.83
2023-03-06T23:45:30.578Z,2.80
2023-03-06T23:47:58.030Z,2.80
2023-03-06T23:50:26.165Z,2.90
2023-03-06T23:52:55.317Z,2.87
2023-03-06T23:55:22.785Z,2.83
2023-03-06T23:57:50.197Z,2.90
